createdAt,value
2018-11-05T00:00:20.889Z,28.60
2018-11-05T00:02:50.660Z,23.87
2018-11-05T00:05:18.970Z,22.60
2018-11-05T00:07:47.143Z,24.13
2018-11-05T00:10:15.336Z,21.80
2018-11-05T00:12:43.566Z,24.20
2018-11-05T00:15:15.505Z,21.50
2018-11-05T00:17:43.785Z,24.98
2018-11-05T00:20:12.415Z,24.37
2018-11-05T00:22:40.723Z,20.23
2018-11-05T00:25:10.756Z,27.77
2018-11-05T00:27:39.297Z,25.00
2018-11-05T00:30:08.704Z,30.05
2018-11-05T00:32:37.127Z,22.45
2018-11-05T00:35:05.553Z,28.00
2018-11-05T00:37:33.756Z,31.20
2018-11-05T00:40:01.989Z,29.13
2018-11-05T00:42:30.412Z,28.53
2018-11-05T00:44:58.791Z,25.23
2018-11-05T00:47:26.992Z,25.80
2018-11-05T00:49:55.190Z,28.32
2018-11-05T00:52:23.417Z,26.50
2018-11-05T00:54:51.743Z,27.17
2018-11-05T00:57:19.988Z,26.03
2018-11-05T00:59:48.214Z,22.60
2018-11-05T01:02:16.421Z,26.83
2018-11-05T01:04:44.623Z,29.80
2018-11-05T01:07:12.909Z,26.87
2018-11-05T01:09:41.085Z,26.40
2018-11-05T01:12:09.302Z,35.55
2018-11-05T01:14:37.459Z,28.67
2018-11-05T01:17:05.782Z,26.30
2018-11-05T01:19:34.039Z,32.58
2018-11-05T01:22:02.316Z,26.40
2018-11-05T01:24:30.507Z,30.33
2018-11-05T01:26:58.727Z,28.50
2018-11-05T01:29:26.951Z,32.33
2018-11-05T01:31:55.157Z,27.50
2018-11-05T01:34:23.339Z,38.73
2018-11-05T01:36:51.539Z,29.57
2018-11-05T01:39:19.860Z,26.57
2018-11-05T01:41:48.103Z,28.97
2018-11-05T01:44:16.389Z,30.33
2018-11-05T01:46:44.629Z,33.20
2018-11-05T01:54:05.323Z,31.97
2018-11-05T01:56:33.614Z,40.47
2018-11-05T02:03:54.235Z,36.15
2018-11-05T02:06:22.463Z,37.53
2018-11-05T02:08:50.659Z,37.50
2018-11-05T02:11:18.819Z,39.57
2018-11-05T02:13:47.011Z,35.20
2018-11-05T02:16:15.315Z,42.15
2018-11-05T02:18:43.467Z,37.70
2018-11-05T02:21:12.580Z,34.73
2018-11-05T02:23:41.592Z,34.63
2018-11-05T02:26:09.820Z,34.27
2018-11-05T02:28:38.587Z,42.08
2018-11-05T02:31:06.863Z,37.23
2018-11-05T02:33:35.055Z,32.97
2018-11-05T02:36:03.286Z,39.63
2018-11-05T02:38:31.443Z,33.43
2018-11-05T02:40:59.638Z,35.95
2018-11-05T02:43:27.808Z,32.27
2018-11-05T02:45:56.040Z,33.55
2018-11-05T02:48:24.238Z,34.27
2018-11-05T02:50:52.484Z,35.57
2018-11-05T02:53:20.674Z,40.35
2018-11-05T02:55:48.928Z,39.63
2018-11-05T02:58:17.104Z,33.60
2018-11-05T03:00:45.303Z,34.60
2018-11-05T03:03:21.510Z,34.83
2018-11-05T03:05:49.647Z,33.23
2018-11-05T03:08:17.811Z,33.80
2018-11-05T03:10:45.991Z,28.27
2018-11-05T03:13:14.214Z,32.00
2018-11-05T03:15:42.436Z,32.38
2018-11-05T03:18:10.862Z,26.95
2018-11-05T03:20:39.071Z,33.77
2018-11-05T03:23:07.264Z,27.05
2018-11-05T03:25:35.423Z,38.03
2018-11-05T03:28:03.666Z,25.00
2018-11-05T03:30:31.849Z,28.23
2018-11-05T03:33:03.331Z,29.12
2018-11-05T03:35:31.915Z,33.37
2018-11-05T03:38:00.854Z,38.78
2018-11-05T03:40:29.040Z,30.47
2018-11-05T03:42:57.256Z,30.17
2018-11-05T03:45:25.450Z,36.20
2018-11-05T03:47:53.716Z,34.33
2018-11-05T03:50:21.916Z,31.73
2018-11-05T03:52:50.116Z,32.93
2018-11-05T03:55:18.872Z,37.53
2018-11-05T03:57:47.084Z,31.53
2018-11-05T04:00:16.488Z,29.00
2018-11-05T04:02:45.212Z,29.98
2018-11-05T04:05:13.433Z,29.87
2018-11-05T04:07:41.702Z,34.27
2018-11-05T04:10:11.052Z,32.47
2018-11-05T04:12:39.994Z,28.05
2018-11-05T04:15:08.439Z,36.77
2018-11-05T04:17:36.600Z,31.93
2018-11-05T04:20:06.341Z,44.73
2018-11-05T04:22:34.833Z,38.30
2018-11-05T04:25:03.118Z,31.90
2018-11-05T04:27:31.490Z,37.30
2018-11-05T04:29:59.638Z,31.67
2018-11-05T04:32:27.843Z,32.00
2018-11-05T04:34:56.093Z,34.05
2018-11-05T04:37:24.450Z,32.00
2018-11-05T04:39:52.623Z,35.92
2018-11-05T04:42:20.848Z,32.70
2018-11-05T04:44:49.884Z,41.55
2018-11-05T04:47:18.101Z,36.90
2018-11-05T04:49:46.273Z,34.83
2018-11-05T04:52:14.468Z,29.57
2018-11-05T04:54:42.724Z,40.55
2018-11-05T04:57:10.911Z,34.00
2018-11-05T04:59:39.114Z,37.17
2018-11-05T05:02:07.342Z,36.83
2018-11-05T05:04:38.835Z,37.38
2018-11-05T05:07:07.214Z,33.67
2018-11-05T05:09:35.549Z,32.80
2018-11-05T05:12:03.806Z,33.47
2018-11-05T05:14:32.091Z,36.50
2018-11-05T05:17:00.296Z,35.80
2018-11-05T05:19:28.505Z,32.98
2018-11-05T05:21:56.688Z,27.13
2018-11-05T05:24:24.939Z,32.67
2018-11-05T05:26:53.279Z,31.27
2018-11-05T05:29:21.409Z,33.08
2018-11-05T05:31:49.615Z,29.32
2018-11-05T05:34:17.828Z,33.27
2018-11-05T05:36:46.040Z,36.33
2018-11-05T05:39:14.331Z,31.15
2018-11-05T05:41:42.783Z,30.55
2018-11-05T05:44:10.996Z,30.40
2018-11-05T05:46:39.292Z,34.63
2018-11-05T05:49:07.552Z,35.87
2018-11-05T05:51:35.789Z,31.87
2018-11-05T05:54:04.058Z,36.27
2018-11-05T05:56:33.148Z,42.04
2018-11-05T05:59:01.912Z,38.60
2018-11-05T06:01:30.145Z,36.45
2018-11-05T06:03:58.612Z,37.47
2018-11-05T06:06:30.160Z,37.60
2018-11-05T06:08:58.519Z,38.58
2018-11-05T06:11:28.266Z,34.30
2018-11-05T06:13:57.408Z,45.28
2018-11-05T06:16:25.613Z,35.13
2018-11-05T06:18:53.979Z,35.90
2018-11-05T06:21:26.611Z,31.70
2018-11-05T06:23:54.857Z,33.45
2018-11-05T06:26:23.181Z,33.77
2018-11-05T06:28:51.360Z,30.43
2018-11-05T06:31:19.552Z,31.20
2018-11-05T06:33:47.764Z,36.93
2018-11-05T06:36:15.982Z,29.97
2018-11-05T06:38:44.635Z,36.10
2018-11-05T06:41:13.072Z,27.15
2018-11-05T06:43:42.211Z,27.50
2018-11-05T06:46:10.588Z,27.80
2018-11-05T06:48:38.890Z,23.33
2018-11-05T06:51:11.197Z,26.27
2018-11-05T06:53:39.408Z,26.33
2018-11-05T06:56:07.696Z,35.93
2018-11-05T06:58:35.979Z,34.07
2018-11-05T07:01:04.524Z,31.10
2018-11-05T07:03:32.811Z,32.07
2018-11-05T07:06:01.270Z,33.20
2018-11-05T07:08:29.336Z,24.20
2018-11-05T07:10:57.595Z,25.57
2018-11-05T07:13:25.781Z,23.57
2018-11-05T07:15:54.007Z,31.53
2018-11-05T07:18:22.282Z,30.53
2018-11-05T07:20:50.467Z,25.50
2018-11-05T07:23:18.748Z,25.13
2018-11-05T07:25:46.972Z,27.87
2018-11-05T07:28:15.208Z,30.23
2018-11-05T07:30:43.519Z,31.50
2018-11-05T07:33:11.822Z,27.20
2018-11-05T07:35:40.073Z,28.67
2018-11-05T07:38:08.296Z,26.43
2018-11-05T07:40:36.576Z,25.60
2018-11-05T07:43:05.056Z,29.73
2018-11-05T07:45:33.310Z,27.22
2018-11-05T07:48:01.554Z,24.90
2018-11-05T07:50:30.829Z,23.20
2018-11-05T07:53:02.059Z,28.25
2018-11-05T07:55:31.741Z,25.77
2018-11-05T07:57:59.945Z,28.13
2018-11-05T08:00:33.448Z,23.63
2018-11-05T08:03:02.257Z,22.58
2018-11-05T08:05:30.514Z,25.97
2018-11-05T08:08:02.406Z,34.63
2018-11-05T08:10:30.654Z,26.00
2018-11-05T08:12:59.159Z,21.60
2018-11-05T08:15:27.498Z,24.13
2018-11-05T08:17:55.702Z,23.00
2018-11-05T08:20:23.891Z,22.02
2018-11-05T08:22:56.419Z,31.53
2018-11-05T08:25:24.618Z,24.33
2018-11-05T08:27:52.884Z,26.63
2018-11-05T08:30:22.328Z,25.90
2018-11-05T08:32:50.572Z,23.00
2018-11-05T08:35:18.775Z,21.30
2018-11-05T08:37:47.867Z,18.25
2018-11-05T08:40:29.169Z,20.40
2018-11-05T08:42:57.805Z,20.73
2018-11-05T08:45:27.239Z,22.03
2018-11-05T08:47:55.512Z,21.73
2018-11-05T08:50:24.730Z,26.62
2018-11-05T08:52:52.835Z,24.90
2018-11-05T08:55:22.363Z,20.27
2018-11-05T08:57:50.645Z,22.60
2018-11-05T09:00:24.635Z,24.67
2018-11-05T09:02:53.666Z,20.60
2018-11-05T09:05:22.406Z,23.60
2018-11-05T09:07:51.671Z,23.57
2018-11-05T09:10:20.032Z,20.43
2018-11-05T09:12:48.113Z,19.97
2018-11-05T09:15:17.612Z,20.02
2018-11-05T09:17:46.241Z,21.80
2018-11-05T09:20:16.121Z,23.18
2018-11-05T09:27:47.112Z,21.82
2018-11-05T09:30:17.129Z,17.55
2018-11-05T09:32:46.821Z,14.70
2018-11-05T09:35:15.309Z,20.70
2018-11-05T09:37:43.656Z,19.47
2018-11-05T09:40:14.992Z,18.17
2018-11-05T09:42:43.939Z,15.07
2018-11-05T09:45:14.867Z,19.63
2018-11-05T09:50:33.770Z,17.27
2018-11-05T09:53:01.911Z,18.43
2018-11-05T09:55:30.156Z,16.70
2018-11-05T09:57:58.489Z,22.80
2018-11-05T10:00:27.564Z,18.47
2018-11-05T10:02:59.791Z,15.93
2018-11-05T10:05:28.033Z,17.70
2018-11-05T10:07:56.248Z,11.35
2018-11-05T10:10:25.347Z,16.73
2018-11-05T10:12:53.687Z,15.57
2018-11-05T10:15:21.943Z,17.30
2018-11-05T10:17:50.211Z,13.90
2018-11-05T10:20:19.902Z,15.03
2018-11-05T10:22:48.167Z,15.30
2018-11-05T10:25:20.655Z,14.87
2018-11-05T10:27:49.742Z,13.93
2018-11-05T10:30:20.245Z,15.77
2018-11-05T10:32:48.564Z,18.83
2018-11-05T10:35:17.222Z,11.60
2018-11-05T10:37:46.390Z,18.67
2018-11-05T10:40:19.179Z,13.97
2018-11-05T10:42:47.840Z,13.47
2018-11-05T10:45:17.816Z,13.20
2018-11-05T10:47:46.080Z,14.03
2018-11-05T10:50:15.474Z,11.70
2018-11-05T10:52:44.959Z,19.48
2018-11-05T10:55:23.854Z,14.07
2018-11-05T10:57:52.040Z,15.38
2018-11-05T11:00:26.725Z,17.00
2018-11-05T11:03:00.245Z,15.17
2018-11-05T11:05:29.561Z,16.13
2018-11-05T11:07:58.622Z,16.77
2018-11-05T11:10:30.739Z,10.17
2018-11-05T11:12:59.195Z,11.22
2018-11-05T11:15:27.420Z,13.37
2018-11-05T11:17:56.446Z,10.88
2018-11-05T11:20:24.746Z,13.00
2018-11-05T11:22:53.020Z,8.83
2018-11-05T11:25:21.355Z,14.17
2018-11-05T11:27:49.722Z,13.87
2018-11-05T11:30:18.011Z,11.80
2018-11-05T11:32:46.926Z,18.47
2018-11-05T11:35:15.664Z,12.80
2018-11-05T11:37:43.927Z,12.20
2018-11-05T11:40:20.067Z,16.43
2018-11-05T11:42:48.824Z,10.93
2018-11-05T11:45:18.124Z,15.93
2018-11-05T11:47:46.982Z,14.13
2018-11-05T11:50:16.223Z,12.30
2018-11-05T11:52:44.482Z,13.63
2018-11-05T11:55:15.264Z,14.73
2018-11-05T11:57:43.706Z,13.00
2018-11-05T12:00:14.860Z,14.03
2018-11-05T12:02:43.048Z,14.80
2018-11-05T12:05:12.617Z,17.23
2018-11-05T12:07:40.729Z,14.17
2018-11-05T12:10:14.103Z,17.57
2018-11-05T12:12:42.555Z,20.02
2018-11-05T12:15:11.637Z,13.70
2018-11-05T12:17:40.810Z,9.63
2018-11-05T12:20:11.176Z,14.77
2018-11-05T12:22:39.451Z,14.37
2018-11-05T12:25:08.621Z,12.98
2018-11-05T12:27:38.521Z,16.33
2018-11-05T12:30:13.572Z,10.20
2018-11-05T12:32:42.005Z,16.53
2018-11-05T12:35:11.296Z,13.32
2018-11-05T12:37:39.869Z,12.30
2018-11-05T12:40:09.593Z,12.40
2018-11-05T12:42:37.808Z,13.20
2018-11-05T12:45:06.480Z,11.60
2018-11-05T12:47:34.690Z,12.63
2018-11-05T12:50:02.926Z,10.13
2018-11-05T12:52:31.287Z,19.03
2018-11-05T12:54:59.463Z,15.27
2018-11-05T12:57:27.619Z,13.00
2018-11-05T12:59:55.827Z,8.97
2018-11-05T13:02:25.952Z,10.55
2018-11-05T13:04:54.827Z,9.90
2018-11-05T13:07:23.131Z,13.03
2018-11-05T13:09:51.675Z,10.87
2018-11-05T13:12:19.912Z,12.35
2018-11-05T13:14:48.836Z,9.33
2018-11-05T13:17:17.019Z,11.33
2018-11-05T13:19:45.313Z,11.63
2018-11-05T13:22:13.612Z,14.03
2018-11-05T13:24:41.729Z,11.60
2018-11-05T13:27:09.921Z,16.25
2018-11-05T13:29:41.385Z,10.35
2018-11-05T13:32:09.527Z,13.85
2018-11-05T13:34:37.728Z,12.40
2018-11-05T13:37:06.252Z,13.72
2018-11-05T13:39:34.344Z,9.88
2018-11-05T13:42:03.267Z,13.30
2018-11-05T13:44:36.126Z,12.80
2018-11-05T13:47:04.804Z,8.47
2018-11-05T13:49:33.018Z,11.68
2018-11-05T13:52:01.157Z,17.33
2018-11-05T13:54:29.499Z,13.70
2018-11-05T13:56:57.731Z,10.53
2018-11-05T13:59:28.896Z,10.43
2018-11-05T14:01:57.076Z,11.03
2018-11-05T14:04:25.264Z,15.50
2018-11-05T14:06:53.678Z,9.95
2018-11-05T14:09:21.908Z,13.07
2018-11-05T14:11:50.096Z,11.50
2018-11-05T14:14:18.736Z,15.95
2018-11-05T14:16:46.932Z,12.60
2018-11-05T14:19:15.087Z,13.62
2018-11-05T14:21:43.396Z,12.27
2018-11-05T14:24:11.571Z,13.15
2018-11-05T14:26:39.772Z,10.63
2018-11-05T14:29:08.489Z,9.85
2018-11-05T14:31:39.279Z,14.93
2018-11-05T14:34:08.356Z,11.17
2018-11-05T14:36:36.761Z,9.33
2018-11-05T14:39:08.466Z,10.78
2018-11-05T14:41:36.760Z,9.97
2018-11-05T14:44:05.170Z,17.17
2018-11-05T14:46:33.652Z,14.40
2018-11-05T14:49:01.874Z,14.53
2018-11-05T14:51:30.104Z,17.20
2018-11-05T14:53:58.655Z,13.72
2018-11-05T14:56:26.912Z,13.40
2018-11-05T14:58:55.344Z,15.63
2018-11-05T15:01:23.522Z,11.73
2018-11-05T15:03:52.012Z,16.50
2018-11-05T15:06:20.245Z,19.67
2018-11-05T15:08:48.964Z,11.93
2018-11-05T15:11:17.167Z,16.57
2018-11-05T15:13:45.693Z,11.77
2018-11-05T15:16:14.253Z,13.70
2018-11-05T15:18:43.196Z,12.23
2018-11-05T15:21:11.425Z,12.23
2018-11-05T15:23:39.673Z,10.90
2018-11-05T15:26:08.200Z,14.47
2018-11-05T15:28:36.441Z,15.37
2018-11-05T15:31:08.866Z,11.08
2018-11-05T15:33:37.109Z,14.73
2018-11-05T15:36:05.527Z,14.80
2018-11-05T15:38:34.039Z,12.50
2018-11-05T15:41:02.863Z,20.72
2018-11-05T15:43:31.146Z,14.05
2018-11-05T15:45:59.326Z,16.35
2018-11-05T15:48:27.943Z,15.78
2018-11-05T15:50:56.167Z,14.63
2018-11-05T15:53:24.751Z,17.77
2018-11-05T15:55:52.553Z,13.43
2018-11-05T15:58:20.787Z,14.30
2018-11-05T16:00:49.063Z,17.07
2018-11-05T16:03:17.476Z,12.50
2018-11-05T16:05:45.662Z,14.43
2018-11-05T16:08:13.904Z,17.40
2018-11-05T16:10:42.115Z,17.17
2018-11-05T16:13:10.381Z,18.27
2018-11-05T16:15:38.641Z,14.20
2018-11-05T16:18:06.844Z,19.33
2018-11-05T16:20:35.028Z,16.23
2018-11-05T16:23:03.211Z,18.40
2018-11-05T16:25:31.418Z,14.53
2018-11-05T16:27:59.629Z,13.80
2018-11-05T16:30:27.866Z,19.57
2018-11-05T16:32:56.081Z,17.02
2018-11-05T16:35:24.400Z,14.13
2018-11-05T16:37:52.598Z,14.47
2018-11-05T16:40:20.932Z,19.57
2018-11-05T16:42:50.241Z,15.40
2018-11-05T16:45:18.472Z,20.23
2018-11-05T16:47:46.943Z,17.03
2018-11-05T16:50:24.027Z,16.93
2018-11-05T16:52:52.195Z,25.97
2018-11-05T16:55:20.594Z,15.33
2018-11-05T16:57:48.899Z,16.07
2018-11-05T17:00:17.383Z,17.50
2018-11-05T17:02:50.197Z,16.55
2018-11-05T17:05:18.296Z,19.03
2018-11-05T17:07:47.435Z,16.40
2018-11-05T17:10:16.928Z,28.60
2018-11-05T17:12:45.862Z,26.17
2018-11-05T17:15:15.391Z,18.15
2018-11-05T17:17:44.084Z,18.10
2018-11-05T17:20:15.357Z,24.57
2018-11-05T17:22:43.945Z,17.07
2018-11-05T17:25:13.471Z,19.15
2018-11-05T17:27:41.955Z,20.03
2018-11-05T17:30:12.244Z,23.40
2018-11-05T17:32:40.512Z,17.60
2018-11-05T17:35:08.744Z,14.68
2018-11-05T17:42:31.440Z,22.47
2018-11-05T17:44:59.633Z,20.33
2018-11-05T17:47:31.621Z,22.73
2018-11-05T17:49:59.827Z,18.80
2018-11-05T17:52:28.071Z,16.73
2018-11-05T17:54:56.311Z,22.80
2018-11-05T17:57:24.514Z,20.27
2018-11-05T17:59:52.719Z,23.00
2018-11-05T18:02:27.432Z,23.07
2018-11-05T18:04:56.543Z,19.37
2018-11-05T18:07:25.580Z,26.20
2018-11-05T18:09:54.411Z,27.13
2018-11-05T18:12:23.707Z,22.60
2018-11-05T18:14:51.904Z,23.77
2018-11-05T18:17:20.201Z,25.17
2018-11-05T18:19:48.424Z,24.30
2018-11-05T18:22:16.640Z,21.57
2018-11-05T18:24:44.905Z,22.57
2018-11-05T18:27:13.207Z,26.33
2018-11-05T18:29:41.440Z,25.20
2018-11-05T18:32:13.901Z,25.57
2018-11-05T18:34:46.532Z,20.17
2018-11-05T18:37:15.049Z,20.57
2018-11-05T18:39:44.535Z,22.98
2018-11-05T18:42:12.876Z,24.33
2018-11-05T18:44:41.276Z,25.30
2018-11-05T18:47:10.230Z,25.68
2018-11-05T18:49:39.283Z,26.93
2018-11-05T18:52:08.457Z,31.03
2018-11-05T18:54:37.054Z,29.00
2018-11-05T18:57:05.816Z,27.07
2018-11-05T18:59:34.141Z,24.67
2018-11-05T19:02:02.649Z,25.97
2018-11-05T19:04:30.878Z,25.67
2018-11-05T19:06:59.177Z,26.17
2018-11-05T19:09:27.488Z,21.15
2018-11-05T19:11:55.606Z,28.87
2018-11-05T19:14:23.839Z,28.60
2018-11-05T19:16:52.044Z,31.70
2018-11-05T19:19:27.408Z,36.23
2018-11-05T19:21:55.632Z,29.60
2018-11-05T19:24:24.538Z,23.13
2018-11-05T19:26:52.663Z,30.50
2018-11-05T19:29:20.843Z,24.73
2018-11-05T19:31:49.063Z,30.65
2018-11-05T19:34:21.284Z,27.43
2018-11-05T19:36:49.472Z,37.38
2018-11-05T19:39:17.806Z,35.13
2018-11-05T19:41:45.990Z,32.53
2018-11-05T19:44:14.488Z,36.33
2018-11-05T19:46:42.679Z,31.40
2018-11-05T19:49:14.033Z,26.73
2018-11-05T19:51:42.272Z,34.80
2018-11-05T19:54:10.593Z,35.75
2018-11-05T19:56:39.333Z,39.40
2018-11-05T19:59:08.151Z,41.85
2018-11-05T20:01:36.370Z,38.50
2018-11-05T20:04:05.439Z,32.80
2018-11-05T20:06:34.745Z,31.60
2018-11-05T20:09:03.515Z,28.15
2018-11-05T20:11:31.699Z,26.97
2018-11-05T20:13:59.893Z,35.20
2018-11-05T20:16:28.153Z,42.03
2018-11-05T20:18:56.575Z,41.77
2018-11-05T20:21:24.886Z,35.73
2018-11-05T20:23:53.110Z,34.87
2018-11-05T20:26:21.334Z,37.08
2018-11-05T20:28:49.631Z,22.60
2018-11-05T20:31:18.061Z,30.32
2018-11-05T20:33:46.289Z,33.00
2018-11-05T20:36:14.309Z,38.70
2018-11-05T20:38:42.481Z,37.80
2018-11-05T20:41:10.628Z,31.30
2018-11-05T20:43:38.806Z,32.45
2018-11-05T20:46:07.104Z,27.47
2018-11-05T20:48:35.423Z,27.30
2018-11-05T20:51:03.624Z,33.80
2018-11-05T20:53:31.886Z,31.90
2018-11-05T20:56:00.056Z,28.03
2018-11-05T20:58:28.492Z,29.30
2018-11-05T21:00:57.719Z,37.38
2018-11-05T21:03:25.870Z,34.60
2018-11-05T21:05:58.552Z,36.75
2018-11-05T21:08:26.732Z,36.63
2018-11-05T21:10:55.055Z,39.65
2018-11-05T21:13:23.255Z,33.75
2018-11-05T21:15:51.573Z,38.97
2018-11-05T21:18:22.403Z,37.07
2018-11-05T21:20:51.420Z,39.33
2018-11-05T21:23:19.885Z,38.30
2018-11-05T21:25:48.362Z,38.82
2018-11-05T21:28:16.628Z,38.10
2018-11-05T21:30:44.885Z,27.80
2018-11-05T21:33:13.284Z,35.73
2018-11-05T21:35:41.414Z,31.80
2018-11-05T21:38:09.630Z,34.23
2018-11-05T21:40:37.949Z,28.63
2018-11-05T21:43:06.256Z,34.63
2018-11-05T21:45:34.574Z,37.47
2018-11-05T21:48:03.175Z,35.23
2018-11-05T21:50:31.451Z,47.80
2018-11-05T21:52:59.652Z,28.67
2018-11-05T21:55:28.050Z,36.63
2018-11-05T21:57:56.240Z,45.48
2018-11-05T22:00:25.276Z,31.77
2018-11-05T22:02:58.744Z,38.23
2018-11-05T22:05:26.931Z,38.13
2018-11-05T22:07:55.208Z,38.10
2018-11-05T22:10:23.386Z,73.43
2018-11-05T22:12:51.728Z,50.25
2018-11-05T22:15:19.978Z,41.50
2018-11-05T22:17:48.207Z,33.83
2018-11-05T22:20:16.544Z,39.40
2018-11-05T22:22:47.836Z,38.73
2018-11-05T22:25:15.999Z,30.50
2018-11-05T22:27:44.191Z,41.50
2018-11-05T22:30:12.896Z,32.63
2018-11-05T22:32:41.101Z,27.32
2018-11-05T22:35:09.238Z,30.03
2018-11-05T22:37:37.612Z,35.77
2018-11-05T22:40:07.858Z,33.93
2018-11-05T22:42:36.056Z,33.10
2018-11-05T22:45:04.425Z,31.57
2018-11-05T22:47:32.574Z,34.47
2018-11-05T22:50:00.773Z,34.80
2018-11-05T22:52:39.117Z,25.23
2018-11-05T22:55:07.844Z,29.67
2018-11-05T22:57:36.055Z,35.55
2018-11-05T23:00:06.909Z,35.83
2018-11-05T23:02:35.007Z,26.90
2018-11-05T23:05:03.840Z,28.30
2018-11-05T23:07:35.673Z,18.30
2018-11-05T23:10:04.463Z,35.14
2018-11-05T23:12:32.653Z,28.63
2018-11-05T23:15:00.863Z,21.25
2018-11-05T23:17:29.114Z,25.03
2018-11-05T23:19:57.315Z,30.32
2018-11-05T23:22:25.518Z,23.97
2018-11-05T23:24:58.480Z,28.17
2018-11-05T23:27:26.689Z,28.30
2018-11-05T23:29:54.863Z,26.87
2018-11-05T23:32:23.039Z,26.73
2018-11-05T23:34:51.248Z,24.87
2018-11-05T23:37:19.416Z,25.23
2018-11-05T23:39:51.114Z,24.77
2018-11-05T23:42:19.355Z,28.20
2018-11-05T23:44:47.626Z,23.70
2018-11-05T23:47:16.251Z,21.77
2018-11-05T23:49:44.564Z,21.93
2018-11-05T23:52:12.769Z,28.43
2018-11-05T23:54:40.932Z,29.27
2018-11-05T23:57:09.126Z,26.00
2018-11-05T23:59:37.363Z,21.23
